createdAt,value
2023-05-01T00:00:42.546Z,40.7705
2023-05-01T00:01:42.654Z,35.8902
2023-05-01T00:02:42.921Z,37.4634
2023-05-01T00:03:43.180Z,36.2959
2023-05-01T00:04:43.441Z,34.7323
2023-05-01T00:05:43.542Z,37.5478
2023-05-01T00:06:43.684Z,38.5179
2023-05-01T00:07:43.816Z,38.2457
2023-05-01T00:08:43.932Z,41.8918
2023-05-01T00:09:44.088Z,37.4773
2023-05-01T00:10:44.189Z,38.2452
2023-05-01T00:11:44.327Z,40.1789
2023-05-01T00:12:44.469Z,38.3531
2023-05-01T00:13:44.573Z,36.0536
2023-05-01T00:14:44.684Z,35.9635
2023-05-01T00:15:44.812Z,35.2160
2023-05-01T00:16:44.979Z,39.2409
2023-05-01T00:17:45.193Z,36.6418
2023-05-01T00:18:45.309Z,42.7546
2023-05-01T00:19:45.401Z,39.4087
2023-05-01T00:20:45.501Z,38.6866
2023-05-01T00:21:45.694Z,37.7837
2023-05-01T00:22:45.799Z,38.8269
2023-05-01T00:23:45.939Z,37.5846
2023-05-01T00:24:46.045Z,36.3054
2023-05-01T00:25:46.188Z,40.7196
2023-05-01T00:26:46.366Z,42.1251
2023-05-01T00:27:46.471Z,41.3627
2023-05-01T00:28:46.582Z,40.6288
2023-05-01T00:29:46.696Z,40.3359
2023-05-01T00:30:46.863Z,45.3415
2023-05-01T00:31:47.076Z,44.6543
2023-05-01T00:32:47.325Z,41.3647
2023-05-01T00:33:47.393Z,42.6113
2023-05-01T00:34:47.482Z,41.0408
2023-05-01T00:35:47.601Z,44.5693
2023-05-01T00:36:49.707Z,40.6991
2023-05-01T00:37:50.100Z,42.6424
2023-05-01T00:38:50.227Z,43.6430
2023-05-01T00:39:50.330Z,44.1025
2023-05-01T00:40:50.476Z,43.2927
2023-05-01T00:41:50.622Z,46.5825
2023-05-01T00:42:50.747Z,45.9130
2023-05-01T00:43:50.906Z,49.8264
2023-05-01T00:44:51.005Z,44.5630
2023-05-01T00:45:51.164Z,48.9738
2023-05-01T00:46:51.259Z,47.7334
2023-05-01T00:47:51.445Z,48.8995
2023-05-01T00:48:51.547Z,48.1281
2023-05-01T00:49:51.659Z,48.3164
2023-05-01T00:50:51.767Z,46.0316
2023-05-01T00:51:51.944Z,46.9816
2023-05-01T00:52:52.032Z,50.0657
2023-05-01T00:53:52.144Z,49.4373
2023-05-01T00:54:52.287Z,47.1295
2023-05-01T00:55:52.421Z,47.1883
2023-05-01T00:56:52.566Z,48.3864
2023-05-01T00:57:52.714Z,47.8383
2023-05-01T00:58:52.829Z,47.6206
2023-05-01T00:59:53.000Z,46.6923
2023-05-01T01:00:53.200Z,46.5326
2023-05-01T01:01:55.678Z,50.9205
2023-05-01T01:02:53.467Z,49.0910
2023-05-01T01:03:53.642Z,49.0132
2023-05-01T01:04:53.727Z,50.6002
2023-05-01T01:05:53.851Z,50.5955
2023-05-01T01:06:53.953Z,52.1862
2023-05-01T01:07:54.079Z,52.7317
2023-05-01T01:08:54.216Z,50.5803
2023-05-01T01:09:54.414Z,47.6806
2023-05-01T01:10:54.530Z,50.6138
2023-05-01T01:11:54.636Z,50.7207
2023-05-01T01:12:54.773Z,49.3755
2023-05-01T01:13:54.918Z,50.6041
2023-05-01T01:14:55.015Z,50.3534
2023-05-01T01:15:55.133Z,53.5539
2023-05-01T01:16:55.286Z,51.7289
2023-05-01T01:17:55.405Z,51.2551
2023-05-01T01:18:55.552Z,50.2706
2023-05-01T01:19:55.955Z,48.3753
2023-05-01T01:20:56.203Z,50.7649
2023-05-01T01:21:56.334Z,50.1116
2023-05-01T01:22:56.447Z,52.6691
2023-05-01T01:23:56.578Z,53.9002
2023-05-01T01:24:56.766Z,52.9852
2023-05-01T01:25:56.863Z,57.0099
2023-05-01T01:26:56.988Z,54.8074
2023-05-01T01:27:57.117Z,55.3179
2023-05-01T01:28:57.217Z,54.5624
2023-05-01T01:29:57.638Z,54.4710
2023-05-01T01:30:58.067Z,56.4234
2023-05-01T01:31:58.174Z,52.0905
2023-05-01T01:32:58.346Z,50.9399
2023-05-01T01:33:58.460Z,56.1229
2023-05-01T01:34:58.571Z,54.9962
2023-05-01T01:35:58.722Z,55.8138
2023-05-01T01:36:58.887Z,51.8903
2023-05-01T01:37:59.020Z,55.1244
2023-05-01T01:38:59.143Z,51.8755
2023-05-01T01:39:59.281Z,51.7647
2023-05-01T01:40:59.425Z,52.2979
2023-05-01T01:41:59.616Z,50.7275
2023-05-01T01:42:59.809Z,52.6182
2023-05-01T01:43:59.905Z,56.4390
2023-05-01T01:45:00.050Z,53.3373
2023-05-01T01:46:00.220Z,54.3008
2023-05-01T01:47:00.306Z,50.8881
2023-05-01T01:48:00.539Z,53.0752
2023-05-01T01:49:00.647Z,54.3704
2023-05-01T01:50:00.774Z,50.3417
2023-05-01T01:51:00.904Z,56.0615
2023-05-01T01:52:01.036Z,53.2155
2023-05-01T01:53:01.145Z,56.5667
2023-05-01T01:54:01.266Z,56.6174
2023-05-01T01:55:01.382Z,56.5892
2023-05-01T01:56:03.574Z,57.2733
2023-05-01T01:57:03.947Z,57.4671
2023-05-01T01:58:04.083Z,58.2167
2023-05-01T01:59:04.223Z,57.2103
2023-05-01T02:00:04.321Z,59.5196
2023-05-01T02:01:04.510Z,55.4804
2023-05-01T02:02:04.753Z,54.0362
2023-05-01T02:03:05.005Z,58.4166
2023-05-01T02:04:05.105Z,53.9349
2023-05-01T02:05:05.225Z,52.7633
2023-05-01T02:06:05.367Z,56.0752
2023-05-01T02:07:05.520Z,61.0209
2023-05-01T02:08:05.650Z,58.9555
2023-05-01T02:09:05.786Z,55.8161
2023-05-01T02:10:06.051Z,59.1609
2023-05-01T02:11:06.131Z,56.1973
2023-05-01T02:12:06.237Z,57.9700
2023-05-01T02:13:06.375Z,55.4588
2023-05-01T02:14:06.509Z,55.6618
2023-05-01T02:15:06.626Z,54.4378
2023-05-01T02:16:06.828Z,54.0795
2023-05-01T02:17:06.900Z,57.1811
2023-05-01T02:18:07.055Z,55.9031
2023-05-01T02:19:07.183Z,57.9067
2023-05-01T02:20:07.304Z,55.6493
2023-05-01T02:21:07.443Z,53.2398
2023-05-01T02:22:07.555Z,57.2614
2023-05-01T02:23:07.714Z,60.6433
2023-05-01T02:24:07.832Z,56.3433
2023-05-01T02:25:07.973Z,54.0240
2023-05-01T02:26:08.081Z,57.9661
2023-05-01T02:27:08.224Z,55.1039
2023-05-01T02:28:08.330Z,52.6687
2023-05-01T02:29:08.478Z,59.1414
2023-05-01T02:30:08.582Z,59.1260
2023-05-01T02:31:08.715Z,58.3714
2023-05-01T02:32:08.875Z,55.3710
2023-05-01T02:33:09.062Z,55.7979
2023-05-01T02:34:09.172Z,59.0555
2023-05-01T02:35:09.306Z,56.0324
2023-05-01T02:36:09.409Z,59.9938
2023-05-01T02:37:09.545Z,56.0917
2023-05-01T02:38:09.673Z,56.2227
2023-05-01T02:39:09.812Z,59.1600
2023-05-01T02:40:09.922Z,54.7167
2023-05-01T02:41:10.033Z,57.7407
2023-05-01T02:42:10.164Z,56.7408
2023-05-01T02:43:10.355Z,55.9144
2023-05-01T02:44:10.452Z,56.1665
2023-05-01T02:45:10.610Z,55.7399
2023-05-01T02:46:10.765Z,62.1388
2023-05-01T02:47:10.895Z,58.1570
2023-05-01T02:48:11.097Z,60.0485
2023-05-01T02:49:11.213Z,57.8559
2023-05-01T02:50:11.340Z,60.1330
2023-05-01T02:51:11.455Z,58.8369
2023-05-01T02:52:11.566Z,60.7645
2023-05-01T02:53:11.767Z,60.9570
2023-05-01T02:54:11.879Z,56.8939
2023-05-01T02:55:12.056Z,59.3563
2023-05-01T02:56:12.186Z,57.8851
2023-05-01T02:57:12.374Z,62.2183
2023-05-01T02:58:12.475Z,66.5121
2023-05-01T02:59:12.627Z,62.9246
2023-05-01T03:00:12.792Z,61.6689
2023-05-01T03:01:12.975Z,62.7061
2023-05-01T03:02:13.086Z,62.6135
2023-05-01T03:03:13.271Z,63.4420
2023-05-01T03:04:13.450Z,65.5477
2023-05-01T03:05:13.569Z,64.7709
2023-05-01T03:06:13.794Z,65.9848
2023-05-01T03:07:13.887Z,67.5894
2023-05-01T03:08:13.992Z,64.5816
2023-05-01T03:09:14.126Z,68.7886
2023-05-01T03:10:14.254Z,67.5228
2023-05-01T03:11:14.410Z,69.1114
2023-05-01T03:12:14.517Z,67.2084
2023-05-01T03:13:14.660Z,71.0362
2023-05-01T03:14:14.767Z,68.3062
2023-05-01T03:15:14.962Z,68.9051
2023-05-01T03:16:15.158Z,65.3076
2023-05-01T03:17:15.268Z,69.8711
2023-05-01T03:18:15.397Z,70.2415
2023-05-01T03:19:15.558Z,71.5687
2023-05-01T03:20:15.686Z,73.1761
2023-05-01T03:21:15.824Z,71.8400
2023-05-01T03:22:15.928Z,69.1067
2023-05-01T03:23:19.197Z,70.4831
2023-05-01T03:24:16.107Z,69.6820
2023-05-01T03:25:16.231Z,70.7191
2023-05-01T03:26:16.364Z,69.8433
2023-05-01T03:27:16.491Z,73.9511
2023-05-01T03:28:16.628Z,71.3560
2023-05-01T03:29:16.768Z,68.7630
2023-05-01T03:30:16.914Z,66.1577
2023-05-01T03:31:17.049Z,64.8960
2023-05-01T03:32:17.258Z,71.2374
2023-05-01T03:33:17.406Z,71.5109
2023-05-01T03:34:17.527Z,73.2655
2023-05-01T03:35:17.750Z,66.8578
2023-05-01T03:36:17.866Z,66.7709
2023-05-01T03:37:18.028Z,71.6050
2023-05-01T03:38:18.150Z,70.5413
2023-05-01T03:39:18.306Z,75.8423
2023-05-01T03:40:18.437Z,73.2521
2023-05-01T03:41:18.576Z,70.2543
2023-05-01T03:42:18.770Z,73.3341
2023-05-01T03:43:18.892Z,72.4352
2023-05-01T03:44:19.054Z,72.2303
2023-05-01T03:45:19.173Z,66.5222
2023-05-01T03:46:19.329Z,68.8296
2023-05-01T03:47:19.439Z,74.9705
2023-05-01T03:48:19.595Z,75.0314
2023-05-01T03:49:19.715Z,75.3548
2023-05-01T03:50:19.835Z,74.4954
2023-05-01T03:51:19.999Z,74.9379
2023-05-01T03:52:20.171Z,73.2935
2023-05-01T03:53:20.315Z,70.1535
2023-05-01T03:54:20.502Z,70.3477
2023-05-01T03:55:20.613Z,70.8452
2023-05-01T03:56:20.754Z,76.3996
2023-05-01T03:57:20.941Z,75.2125
2023-05-01T03:58:21.060Z,72.6326
2023-05-01T03:59:21.199Z,75.4555
2023-05-01T04:00:21.324Z,73.9301
2023-05-01T04:01:21.458Z,73.8058
2023-05-01T04:02:21.718Z,74.9801
2023-05-01T04:03:22.107Z,77.1389
2023-05-01T04:04:22.251Z,81.3881
2023-05-01T04:05:22.377Z,76.1085
2023-05-01T04:06:22.548Z,78.7449
2023-05-01T04:07:22.678Z,81.1387
2023-05-01T04:08:22.782Z,72.6513
2023-05-01T04:09:22.909Z,71.6936
2023-05-01T04:10:23.028Z,75.5658
2023-05-01T04:11:23.155Z,73.9601
2023-05-01T04:12:23.292Z,76.7962
2023-05-01T04:13:23.412Z,78.0745
2023-05-01T04:14:23.561Z,74.0605
2023-05-01T04:15:23.710Z,73.7209
2023-05-01T04:16:23.844Z,72.1536
2023-05-01T04:17:23.982Z,79.8460
2023-05-01T04:18:24.110Z,74.7596
2023-05-01T04:19:24.230Z,77.0332
2023-05-01T04:20:24.369Z,79.5623
2023-05-01T04:21:24.484Z,77.5616
2023-05-01T04:22:24.602Z,74.1889
2023-05-01T04:23:24.919Z,84.2566
2023-05-01T04:24:25.002Z,76.3644
2023-05-01T04:25:25.152Z,78.1803
2023-05-01T04:26:25.275Z,77.8250
2023-05-01T04:27:25.436Z,76.8441
2023-05-01T04:28:25.553Z,74.0392
2023-05-01T04:29:25.679Z,74.6032
2023-05-01T04:30:25.821Z,79.4630
2023-05-01T04:31:25.965Z,80.6056
2023-05-01T04:32:26.132Z,80.3909
2023-05-01T04:33:26.222Z,78.5883
2023-05-01T04:34:26.338Z,81.9537
2023-05-01T04:35:26.482Z,85.8689
2023-05-01T04:36:26.619Z,81.6500
2023-05-01T04:37:26.751Z,80.5928
2023-05-01T04:38:26.864Z,83.5087
2023-05-01T04:39:27.008Z,78.9693
2023-05-01T04:40:27.125Z,77.2784
2023-05-01T04:41:27.245Z,86.9978
2023-05-01T04:42:27.358Z,81.4852
2023-05-01T04:43:27.489Z,78.6115
2023-05-01T04:44:27.646Z,81.4862
2023-05-01T04:45:27.785Z,78.0026
2023-05-01T04:46:27.932Z,79.7782
2023-05-01T04:47:28.032Z,77.5027
2023-05-01T04:48:28.141Z,79.9320
2023-05-01T04:49:28.282Z,79.3846
2023-05-01T04:50:28.399Z,78.9201
2023-05-01T04:51:28.520Z,76.7074
2023-05-01T04:52:28.640Z,72.9462
2023-05-01T04:53:28.780Z,75.0225
2023-05-01T04:54:28.921Z,79.7826
2023-05-01T04:55:31.023Z,77.6284
2023-05-01T04:56:31.333Z,73.6304
2023-05-01T04:57:31.454Z,74.2958
2023-05-01T04:58:31.571Z,75.8002
2023-05-01T04:59:31.748Z,71.1837
2023-05-01T05:00:31.901Z,73.7938
2023-05-01T05:01:32.075Z,79.8032
2023-05-01T05:02:32.285Z,76.6157
2023-05-01T05:03:32.594Z,73.5993
2023-05-01T05:04:32.730Z,74.6521
2023-05-01T05:05:32.896Z,73.6671
2023-05-01T05:06:33.070Z,73.9177
2023-05-01T05:07:33.184Z,76.6389
2023-05-01T05:08:33.309Z,75.2771
2023-05-01T05:09:33.458Z,74.9013
2023-05-01T05:10:33.586Z,73.2474
2023-05-01T05:11:33.702Z,71.3648
2023-05-01T05:12:33.834Z,73.4949
2023-05-01T05:13:33.995Z,70.4438
2023-05-01T05:14:34.109Z,74.0454
2023-05-01T05:15:34.282Z,76.5523
2023-05-01T05:16:34.458Z,77.9362
2023-05-01T05:17:34.583Z,78.7366
2023-05-01T05:18:34.689Z,79.9540
2023-05-01T05:19:34.818Z,78.4038
2023-05-01T05:20:34.947Z,74.9742
2023-05-01T05:21:35.085Z,84.5643
2023-05-01T05:22:35.206Z,84.5214
2023-05-01T05:23:35.360Z,80.4866
2023-05-01T05:24:35.489Z,84.0177
2023-05-01T05:25:35.600Z,80.3291
2023-05-01T05:26:35.729Z,80.5824
2023-05-01T05:27:35.893Z,76.2010
2023-05-01T05:28:36.003Z,82.1482
2023-05-01T05:29:36.174Z,86.6663
2023-05-01T05:30:36.278Z,85.7333
2023-05-01T05:31:36.469Z,83.8142
2023-05-01T05:32:36.660Z,86.0184
2023-05-01T05:33:36.763Z,85.7425
2023-05-01T05:34:36.870Z,81.9513
2023-05-01T05:35:37.029Z,81.6497
2023-05-01T05:36:37.134Z,83.3898
2023-05-01T05:37:37.275Z,81.0939
2023-05-01T05:38:37.395Z,83.0054
2023-05-01T05:39:37.551Z,83.7474
2023-05-01T05:40:37.664Z,86.9590
2023-05-01T05:41:37.817Z,85.1878
2023-05-01T05:42:37.938Z,85.0375
2023-05-01T05:43:38.127Z,86.8427
2023-05-01T05:44:38.303Z,88.1260
2023-05-01T05:45:38.495Z,85.4946
2023-05-01T05:46:38.726Z,87.5938
2023-05-01T05:47:38.973Z,86.5421
2023-05-01T05:48:39.235Z,81.8827
2023-05-01T05:49:39.295Z,87.1958
2023-05-01T05:50:39.419Z,87.7866
2023-05-01T05:51:39.571Z,89.1632
2023-05-01T05:52:39.704Z,81.8694
2023-05-01T05:53:39.831Z,83.7286
2023-05-01T05:54:39.967Z,86.4232
2023-05-01T05:55:40.150Z,81.9206
2023-05-01T05:56:40.299Z,79.3938
2023-05-01T05:57:40.454Z,81.0809
2023-05-01T05:58:40.579Z,78.6482
2023-05-01T05:59:40.720Z,80.2046
2023-05-01T06:00:40.846Z,78.3410
2023-05-01T06:01:40.965Z,79.0661
2023-05-01T06:02:41.160Z,76.9099
2023-05-01T06:03:41.495Z,73.6250
2023-05-01T06:04:41.762Z,71.9696
2023-05-01T06:05:41.941Z,75.4440
2023-05-01T06:06:42.080Z,74.8412
2023-05-01T06:07:42.177Z,70.5968
2023-05-01T06:08:42.303Z,67.5146
2023-05-01T06:09:42.489Z,73.0266
2023-05-01T06:10:42.604Z,71.8931
2023-05-01T06:11:43.045Z,73.0543
2023-05-01T06:12:47.051Z,78.5768
2023-05-01T06:13:45.986Z,74.9295
2023-05-01T06:14:46.099Z,68.1787
2023-05-01T06:15:46.271Z,70.5461
2023-05-01T06:16:46.370Z,69.2759
2023-05-01T06:17:46.587Z,76.7166
2023-05-01T06:18:46.703Z,73.2789
2023-05-01T06:19:46.802Z,72.8751
2023-05-01T06:20:46.933Z,70.5415
2023-05-01T06:21:47.057Z,73.4852
2023-05-01T06:22:47.195Z,67.7935
2023-05-01T06:23:47.331Z,69.3889
2023-05-01T06:24:47.448Z,64.4610
2023-05-01T06:25:47.570Z,68.9367
2023-05-01T06:26:47.707Z,67.7010
2023-05-01T06:27:47.836Z,65.7610
2023-05-01T06:28:48.000Z,65.8586
2023-05-01T06:29:48.146Z,67.3653
2023-05-01T06:30:48.271Z,64.2232
2023-05-01T06:31:48.415Z,65.0331
2023-05-01T06:32:48.611Z,65.0859
2023-05-01T06:33:48.781Z,66.0338
2023-05-01T06:34:48.914Z,68.9642
2023-05-01T06:35:49.064Z,69.4568
2023-05-01T06:36:49.192Z,65.3434
2023-05-01T06:37:49.310Z,63.2054
2023-05-01T06:38:49.460Z,67.5451
2023-05-01T06:39:49.611Z,68.6442
2023-05-01T06:40:49.731Z,66.1807
2023-05-01T06:41:49.917Z,68.2440
2023-05-01T06:42:50.083Z,69.1321
2023-05-01T06:43:50.229Z,70.6525
2023-05-01T06:44:50.342Z,69.4884
2023-05-01T06:45:50.472Z,71.8755
2023-05-01T06:46:50.708Z,69.3983
2023-05-01T06:47:50.881Z,68.4761
2023-05-01T06:48:50.992Z,70.7967
2023-05-01T06:49:51.134Z,71.9125
2023-05-01T06:50:51.270Z,67.9359
2023-05-01T06:51:51.427Z,69.4390
2023-05-01T06:52:51.574Z,68.8634
2023-05-01T06:53:51.749Z,65.9675
2023-05-01T06:54:51.940Z,69.3409
2023-05-01T06:55:52.053Z,68.3113
2023-05-01T06:56:52.242Z,68.8814
2023-05-01T06:57:52.378Z,66.5071
2023-05-01T06:58:52.521Z,68.8266
2023-05-01T06:59:52.670Z,66.0312
2023-05-01T07:00:52.846Z,65.2723
2023-05-01T07:01:52.975Z,66.7538
2023-05-01T07:02:53.219Z,64.3166
2023-05-01T07:03:54.378Z,67.7977
2023-05-01T07:04:54.517Z,66.9543
2023-05-01T07:05:54.654Z,67.1094
2023-05-01T07:06:54.843Z,64.5086
2023-05-01T07:08:01.336Z,66.1903
2023-05-01T07:08:57.765Z,61.8112
2023-05-01T07:09:58.377Z,67.5555
2023-05-01T07:10:58.737Z,69.3647
2023-05-01T07:11:58.919Z,61.2549
2023-05-01T07:12:59.061Z,64.0281
2023-05-01T07:13:59.188Z,64.1744
2023-05-01T07:14:59.328Z,67.9944
2023-05-01T07:15:59.459Z,61.7556
2023-05-01T07:16:59.649Z,65.1103
2023-05-01T07:17:59.781Z,65.6824
2023-05-01T07:18:59.912Z,63.8549
2023-05-01T07:20:00.056Z,62.7866
2023-05-01T07:21:00.224Z,63.5723
2023-05-01T07:22:00.352Z,63.8859
2023-05-01T07:23:00.511Z,66.7800
2023-05-01T07:24:00.652Z,68.6134
2023-05-01T07:25:00.760Z,67.6909
2023-05-01T07:26:00.919Z,67.8601
2023-05-01T07:27:01.070Z,65.8920
2023-05-01T07:28:01.225Z,66.8755
2023-05-01T07:29:01.369Z,68.7940
2023-05-01T07:30:01.516Z,67.9055
2023-05-01T07:31:01.671Z,68.5973
2023-05-01T07:32:01.773Z,63.0282
2023-05-01T07:33:02.022Z,65.1854
2023-05-01T07:34:02.145Z,65.1715
2023-05-01T07:35:02.299Z,67.3266
2023-05-01T07:36:02.895Z,69.7176
2023-05-01T07:37:02.954Z,64.1461
2023-05-01T07:38:03.072Z,56.5327
2023-05-01T07:39:03.216Z,61.4238
2023-05-01T07:40:03.341Z,57.6900
2023-05-01T07:41:03.522Z,60.9780
2023-05-01T07:42:03.668Z,64.4252
2023-05-01T07:43:03.789Z,53.3696
2023-05-01T07:44:03.901Z,52.2249
2023-05-01T07:45:04.073Z,57.1352
2023-05-01T07:46:04.244Z,52.4844
2023-05-01T07:47:04.339Z,58.7638
2023-05-01T07:48:04.565Z,55.3797
2023-05-01T07:49:04.676Z,58.0226
2023-05-01T07:50:04.797Z,56.2360
2023-05-01T07:51:05.117Z,59.9529
2023-05-01T07:52:05.172Z,61.3334
2023-05-01T07:53:05.335Z,59.6624
2023-05-01T07:54:05.466Z,59.4111
2023-05-01T07:55:05.667Z,56.6556
2023-05-01T07:56:05.811Z,61.9629
2023-05-01T07:57:05.953Z,61.2987
2023-05-01T07:58:06.088Z,56.2372
2023-05-01T07:59:06.242Z,62.0758
2023-05-01T08:00:06.417Z,55.9433
2023-05-01T08:01:06.541Z,55.7955
2023-05-01T08:02:06.696Z,52.5112
2023-05-01T08:03:07.094Z,52.7120
2023-05-01T08:04:08.396Z,55.0542
2023-05-01T08:05:08.536Z,51.4195
2023-05-01T08:06:08.749Z,53.5366
2023-05-01T08:07:08.939Z,53.8818
2023-05-01T08:08:09.076Z,54.3613
2023-05-01T08:09:09.178Z,53.2077
2023-05-01T08:10:09.343Z,52.3067
2023-05-01T08:11:09.462Z,48.3548
2023-05-01T08:12:09.585Z,48.4752
2023-05-01T08:13:09.706Z,50.1541
2023-05-01T08:14:09.812Z,53.8096
2023-05-01T08:15:09.926Z,52.2029
2023-05-01T08:16:10.171Z,50.4692
2023-05-01T08:17:10.292Z,54.0934
2023-05-01T08:18:10.467Z,50.0089
2023-05-01T08:19:10.596Z,52.8008
2023-05-01T08:20:10.764Z,55.8060
2023-05-01T08:21:10.893Z,56.7283
2023-05-01T08:22:11.118Z,58.4907
2023-05-01T08:23:11.180Z,53.2750
2023-05-01T08:24:11.315Z,56.7810
2023-05-01T08:25:11.472Z,54.5453
2023-05-01T08:26:11.566Z,53.2271
2023-05-01T08:27:11.737Z,54.0361
2023-05-01T08:28:11.928Z,51.5995
2023-05-01T08:29:12.053Z,53.8377
2023-05-01T08:30:12.180Z,56.8350
2023-05-01T08:31:12.392Z,53.2558
2023-05-01T08:32:12.484Z,53.3030
2023-05-01T08:33:12.707Z,51.5946
2023-05-01T08:34:12.836Z,49.2986
2023-05-01T08:35:13.009Z,52.1309
2023-05-01T08:36:13.135Z,53.0849
2023-05-01T08:37:13.267Z,53.5188
2023-05-01T08:38:13.512Z,54.1512
2023-05-01T08:39:13.590Z,53.1086
2023-05-01T08:40:13.706Z,52.2970
2023-05-01T08:41:13.851Z,49.7144
2023-05-01T08:42:13.979Z,49.9623
2023-05-01T08:43:14.105Z,51.9663
2023-05-01T08:44:14.261Z,49.4933
2023-05-01T08:45:14.429Z,54.8750
2023-05-01T08:46:14.598Z,54.2014
2023-05-01T08:47:14.820Z,51.8989
2023-05-01T08:48:14.958Z,51.3756
2023-05-01T08:49:15.079Z,55.5156
2023-05-01T08:50:15.192Z,56.5762
2023-05-01T08:51:15.331Z,55.4558
2023-05-01T08:52:15.463Z,54.9645
2023-05-01T08:53:15.585Z,55.6462
2023-05-01T08:54:15.745Z,58.3676
2023-05-01T08:55:15.848Z,57.6870
2023-05-01T08:56:15.971Z,58.4149
2023-05-01T08:57:16.112Z,57.2277
2023-05-01T08:58:16.227Z,58.9904
2023-05-01T08:59:16.374Z,56.2226
2023-05-01T09:00:16.565Z,61.3545
2023-05-01T09:01:16.737Z,59.3714
2023-05-01T09:02:16.920Z,58.8654
2023-05-01T09:03:17.140Z,55.1500
2023-05-01T09:04:17.371Z,56.5660
2023-05-01T09:05:17.512Z,56.9130
2023-05-01T09:06:17.741Z,59.3904
2023-05-01T09:07:17.850Z,60.3650
2023-05-01T09:08:17.983Z,58.0594
2023-05-01T09:09:18.125Z,56.9441
2023-05-01T09:10:18.306Z,53.9654
2023-05-01T09:11:18.441Z,51.4827
2023-05-01T09:12:18.581Z,54.0140
2023-05-01T09:13:18.753Z,53.0944
2023-05-01T09:14:18.877Z,54.4678
2023-05-01T09:15:19.021Z,58.7769
2023-05-01T09:16:19.166Z,52.3868
2023-05-01T09:17:19.371Z,51.6067
2023-05-01T09:18:19.737Z,56.6466
2023-05-01T09:19:19.877Z,52.1785
2023-05-01T09:20:20.017Z,47.9773
2023-05-01T09:21:20.139Z,49.5491
2023-05-01T09:22:20.255Z,49.9685
2023-05-01T09:23:20.426Z,56.0500
2023-05-01T09:24:20.612Z,52.1239
2023-05-01T09:25:20.737Z,50.6379
2023-05-01T09:26:20.862Z,49.3889
2023-05-01T09:27:21.022Z,55.1305
2023-05-01T09:28:21.148Z,50.1964
2023-05-01T09:29:21.274Z,47.9968
2023-05-01T09:30:21.431Z,46.6489
2023-05-01T09:31:21.628Z,46.7807
2023-05-01T09:32:21.873Z,47.9252
2023-05-01T09:33:22.083Z,49.5317
2023-05-01T09:34:22.187Z,48.9810
2023-05-01T09:35:22.314Z,49.8929
2023-05-01T09:36:22.447Z,48.4545
2023-05-01T09:37:22.580Z,47.0996
2023-05-01T09:38:22.692Z,51.6696
2023-05-01T09:39:22.805Z,51.8960
2023-05-01T09:40:22.927Z,45.5882
2023-05-01T09:41:23.102Z,49.5176
2023-05-01T09:42:23.253Z,47.5409
2023-05-01T09:43:23.385Z,44.3605
2023-05-01T09:44:23.555Z,47.5284
2023-05-01T09:45:23.738Z,43.6199
2023-05-01T09:46:23.865Z,44.6704
2023-05-01T09:47:23.969Z,44.7173
2023-05-01T09:48:24.112Z,43.3128
2023-05-01T09:49:24.233Z,42.4895
2023-05-01T09:50:24.393Z,42.3423
2023-05-01T09:51:24.561Z,41.2863
2023-05-01T09:52:24.680Z,42.0892
2023-05-01T09:53:24.954Z,41.2354
2023-05-01T09:54:25.081Z,46.1147
2023-05-01T09:55:25.790Z,45.0246
2023-05-01T09:56:26.109Z,49.6776
2023-05-01T09:57:26.245Z,46.0219
2023-05-01T09:58:26.432Z,40.7372
2023-05-01T09:59:26.548Z,43.5679
2023-05-01T10:00:26.734Z,44.0427
2023-05-01T10:01:26.866Z,44.5829
2023-05-01T10:02:27.058Z,48.7680
2023-05-01T10:03:27.331Z,44.7334
2023-05-01T10:04:27.480Z,48.4030
2023-05-01T10:05:27.698Z,45.0742
2023-05-01T10:06:27.995Z,43.2522
2023-05-01T10:07:28.112Z,42.7603
2023-05-01T10:08:28.195Z,43.1756
2023-05-01T10:09:28.313Z,46.9671
2023-05-01T10:10:28.462Z,47.6946
2023-05-01T10:11:28.708Z,46.5537
2023-05-01T10:12:28.782Z,43.5616
2023-05-01T10:13:28.898Z,45.4152
2023-05-01T10:14:29.028Z,40.7539
2023-05-01T10:15:29.143Z,38.0348
2023-05-01T10:16:29.321Z,42.8170
2023-05-01T10:17:29.489Z,41.7054
2023-05-01T10:18:29.584Z,39.2521
2023-05-01T10:19:29.708Z,32.0780
2023-05-01T10:20:29.850Z,36.0800
2023-05-01T10:21:29.965Z,35.3813
2023-05-01T10:22:30.089Z,39.8767
2023-05-01T10:23:30.194Z,41.4875
2023-05-01T10:24:30.393Z,41.2709
2023-05-01T10:25:30.503Z,38.3983
2023-05-01T10:26:30.625Z,37.4216
2023-05-01T10:27:30.763Z,37.5798
2023-05-01T10:28:30.964Z,33.2789
2023-05-01T10:29:31.063Z,36.5642
2023-05-01T10:30:31.153Z,29.3888
2023-05-01T10:31:31.334Z,25.0437
2023-05-01T10:32:31.437Z,26.7028
2023-05-01T10:33:31.569Z,24.9310
2023-05-01T10:34:31.717Z,26.8045
2023-05-01T10:35:31.878Z,29.4646
2023-05-01T10:36:32.022Z,29.7755
2023-05-01T10:37:32.119Z,26.9911
2023-05-01T10:38:32.239Z,28.1591
2023-05-01T10:39:32.378Z,28.6146
2023-05-01T10:40:32.539Z,26.2560
2023-05-01T10:41:32.671Z,26.9701
2023-05-01T10:42:32.826Z,24.9099
2023-05-01T10:43:33.921Z,24.8859
2023-05-01T10:44:34.047Z,28.4814
2023-05-01T10:45:35.896Z,21.9224
2023-05-01T10:46:36.075Z,23.4929
2023-05-01T10:47:36.241Z,24.4569
2023-05-01T10:48:36.366Z,26.1371
2023-05-01T10:49:36.488Z,26.3297
2023-05-01T10:50:36.641Z,22.3329
2023-05-01T10:51:36.741Z,24.8393
2023-05-01T10:52:36.858Z,25.0538
2023-05-01T10:53:36.979Z,26.4685
2023-05-01T10:54:37.222Z,23.0927
2023-05-01T10:55:37.388Z,22.3628
2023-05-01T10:56:37.503Z,22.5626
2023-05-01T10:57:37.646Z,24.3323
2023-05-01T10:58:37.749Z,19.1887
2023-05-01T10:59:37.940Z,23.7206
2023-05-01T11:00:38.096Z,22.8850
2023-05-01T11:01:38.268Z,22.0796
2023-05-01T11:02:38.424Z,23.7028
2023-05-01T11:03:38.514Z,22.6181
2023-05-01T11:04:38.627Z,18.2235
2023-05-01T11:05:38.928Z,17.6337
2023-05-01T11:06:39.172Z,17.0467
2023-05-01T11:07:39.364Z,16.0240
2023-05-01T11:08:39.486Z,16.4376
2023-05-01T11:09:39.608Z,18.9996
2023-05-01T11:10:39.736Z,19.0566
2023-05-01T11:11:39.855Z,17.9557
2023-05-01T11:12:39.985Z,16.1172
2023-05-01T11:13:40.166Z,14.9884
2023-05-01T11:14:40.317Z,15.0788
2023-05-01T11:15:40.412Z,13.7333
2023-05-01T11:16:40.631Z,12.4369
2023-05-01T11:17:40.965Z,13.2459
2023-05-01T11:18:41.087Z,15.0222
2023-05-01T11:19:41.218Z,12.6661
2023-05-01T11:20:41.359Z,14.1041
2023-05-01T11:21:41.468Z,15.5442
2023-05-01T11:22:41.592Z,17.4629
2023-05-01T11:23:41.708Z,15.2862
2023-05-01T11:24:41.953Z,18.8714
2023-05-01T11:25:42.085Z,19.7492
2023-05-01T11:26:42.244Z,19.0702
2023-05-01T11:27:42.320Z,19.6070
2023-05-01T11:28:42.455Z,17.8364
2023-05-01T11:29:42.559Z,16.9316
2023-05-01T11:30:42.807Z,17.5608
2023-05-01T11:31:42.970Z,17.8440
2023-05-01T11:32:43.104Z,17.8841
2023-05-01T11:33:43.285Z,15.9339
2023-05-01T11:34:43.451Z,16.9007
2023-05-01T11:35:43.618Z,17.2533
2023-05-01T11:36:43.797Z,17.7726
2023-05-01T11:37:43.949Z,15.6361
2023-05-01T11:38:44.092Z,16.0453
2023-05-01T11:39:44.265Z,18.5013
2023-05-01T11:40:44.447Z,17.3474
2023-05-01T11:41:44.602Z,17.0000
2023-05-01T11:42:44.780Z,18.8127
2023-05-01T11:43:44.952Z,21.0120
2023-05-01T11:44:45.122Z,17.2437
2023-05-01T11:45:45.329Z,16.7241
2023-05-01T11:46:45.446Z,16.7520
2023-05-01T11:47:45.629Z,16.3339
2023-05-01T11:48:45.774Z,16.9957
2023-05-01T11:49:45.976Z,15.7199
2023-05-01T11:50:46.143Z,18.1619
2023-05-01T11:51:46.280Z,17.1429
2023-05-01T11:52:46.499Z,17.7922
2023-05-01T11:53:46.656Z,14.6009
2023-05-01T11:54:46.842Z,16.1314
2023-05-01T11:55:46.971Z,17.5779
2023-05-01T11:56:47.141Z,15.0802
2023-05-01T11:57:47.364Z,16.9810
2023-05-01T11:58:47.533Z,16.8227
2023-05-01T11:59:47.669Z,19.8685
2023-05-01T12:00:47.842Z,17.6590
2023-05-01T12:01:48.061Z,17.7494
2023-05-01T12:02:48.265Z,17.1727
2023-05-01T12:03:48.479Z,16.8492
2023-05-01T12:04:48.741Z,16.2176
2023-05-01T12:05:48.895Z,17.9491
2023-05-01T12:06:49.122Z,16.0446
2023-05-01T12:07:49.256Z,16.2687